This is the latest recevied weather packets stored in our database for station/object YC0TBU-4. If no packets are shown the sender has not sent any weather packets the latest 10 day(s).
| Time | Temp. | Humidity | Pressure | Rain* | Wind** | Luminosity | Snow |
|---|---|---|---|---|---|---|---|
| 1778153706 | 30° C | 42% | 1007.1 hPa | - | - | - | - |
| 1778152771 | 29.44° C | 42% | 1007.5 hPa | - | - | - | - |
| 1778151836 | 29.44° C | 41% | 1008.1 hPa | - | - | - | - |
| 1778150901 | 30° C | 40% | 1007.9 hPa | - | - | - | - |
| 1778149966 | 30° C | 40% | 1007.3 hPa | - | - | - | - |
| 1778149031 | 29.44° C | 39% | 1006.9 hPa | - | - | - | - |
| 1778148096 | 30.56° C | 38% | 1007.3 hPa | - | - | - | - |
| 1778147161 | 31.11° C | 36% | 1006.4 hPa | - | - | - | - |
| 1778146226 | 31.67° C | 34% | 1006.5 hPa | - | - | - | - |
| 1778145291 | 30.56° C | 36% | 1006.1 hPa | - | - | - | - |
| 1778144356 | 31.11° C | 36% | 1005.5 hPa | - | - | - | - |
| 1778143421 | 31.11° C | 36% | 1005.2 hPa | - | - | - | - |
| 1778142486 | 30.56° C | 39% | 1005.6 hPa | - | - | - | - |
| 1778141551 | 30.56° C | 38% | 1005.7 hPa | - | - | - | - |
| 1778140616 | 30.56° C | 38% | 1005.9 hPa | - | - | - | - |
| 1778139681 | 30.56° C | 39% | 1006.4 hPa | - | - | - | - |
| 1778138746 | 31.11° C | 37% | 1006.8 hPa | - | - | - | - |
| 1778137811 | 32.22° C | 35% | 1007 hPa | - | - | - | - |
| 1778136876 | 31.67° C | 36% | 1007.4 hPa | - | - | - | - |
| 1778135941 | 31.11° C | 37% | 1007.6 hPa | - | - | - | - |
| 1778134990 | 32.78° C | 33% | 1009.2 hPa | - | - | - | - |
| 1778134055 | 32.78° C | 33% | 1008.9 hPa | - | - | - | - |
| 1778133120 | 32.22° C | 33% | 1009.7 hPa | - | - | - | - |
| 1778132185 | 32.22° C | 33% | 1008.1 hPa | - | - | - | - |
| 1778131250 | 32.22° C | 35% | 1008.2 hPa | - | - | - | - |
* Rain since midnight (hover to see other rain measurements)
** Current wind speed in m/s (hover to see current wind gust speed)